sensor_id;sensor_type;location;lat;lon;timestamp;P1;durP1;ratioP1;P2;durP2;ratioP2
78622;SDS011;67943;54.412;9.502;2023-08-07T00:00:49;3.20;;;1.38;;
78622;SDS011;67943;54.412;9.502;2023-08-07T00:05:52;4.28;;;1.60;;
78622;SDS011;67943;54.412;9.502;2023-08-07T00:11:03;1.80;;;1.20;;
78622;SDS011;67943;54.412;9.502;2023-08-07T00:16:05;6.65;;;1.80;;
78622;SDS011;67943;54.412;9.502;2023-08-07T00:21:08;2.95;;;1.40;;
78622;SDS011;67943;54.412;9.502;2023-08-07T00:26:09;2.70;;;1.60;;
78622;SDS011;67943;54.412;9.502;2023-08-07T00:31:11;4.18;;;1.40;;
78622;SDS011;67943;54.412;9.502;2023-08-07T00:36:14;4.35;;;1.92;;
78622;SDS011;67943;54.412;9.502;2023-08-07T00:41:16;2.38;;;1.40;;
78622;SDS011;67943;54.412;9.502;2023-08-07T00:46:18;5.13;;;1.52;;
78622;SDS011;67943;54.412;9.502;2023-08-07T00:51:21;4.00;;;1.70;;
78622;SDS011;67943;54.412;9.502;2023-08-07T00:56:24;2.95;;;1.50;;
78622;SDS011;67943;54.412;9.502;2023-08-07T01:01:27;3.70;;;1.70;;
78622;SDS011;67943;54.412;9.502;2023-08-07T01:06:30;4.82;;;1.67;;
78622;SDS011;67943;54.412;9.502;2023-08-07T01:11:33;5.40;;;2.08;;
78622;SDS011;67943;54.412;9.502;2023-08-07T01:16:42;7.70;;;1.80;;
78622;SDS011;67943;54.412;9.502;2023-08-07T01:21:49;11.13;;;2.03;;
78622;SDS011;67943;54.412;9.502;2023-08-07T01:26:50;4.18;;;1.92;;
78622;SDS011;67943;54.412;9.502;2023-08-07T01:31:55;5.40;;;2.38;;
78622;SDS011;67943;54.412;9.502;2023-08-07T01:37:00;5.70;;;2.60;;
78622;SDS011;67943;54.412;9.502;2023-08-07T01:42:03;4.45;;;2.17;;
78622;SDS011;67943;54.412;9.502;2023-08-07T01:47:06;7.88;;;2.97;;
78622;SDS011;67943;54.412;9.502;2023-08-07T01:52:09;5.35;;;2.50;;
78622;SDS011;67943;54.412;9.502;2023-08-07T01:57:11;6.85;;;2.30;;
78622;SDS011;67943;54.412;9.502;2023-08-07T02:02:12;6.03;;;2.65;;
78622;SDS011;67943;54.412;9.502;2023-08-07T02:07:15;4.50;;;2.70;;
78622;SDS011;67943;54.412;9.502;2023-08-07T02:12:17;6.63;;;3.00;;
78622;SDS011;67943;54.412;9.502;2023-08-07T02:17:20;5.85;;;2.92;;
78622;SDS011;67943;54.412;9.502;2023-08-07T02:22:23;5.80;;;2.58;;
78622;SDS011;67943;54.412;9.502;2023-08-07T02:27:24;4.70;;;2.47;;
78622;SDS011;67943;54.412;9.502;2023-08-07T02:32:26;5.82;;;2.50;;
78622;SDS011;67943;54.412;9.502;2023-08-07T02:37:29;6.22;;;2.70;;
78622;SDS011;67943;54.412;9.502;2023-08-07T02:42:30;6.72;;;2.53;;
78622;SDS011;67943;54.412;9.502;2023-08-07T02:47:32;10.10;;;2.10;;
78622;SDS011;67943;54.412;9.502;2023-08-07T02:52:35;4.13;;;2.08;;
78622;SDS011;67943;54.412;9.502;2023-08-07T02:57:36;5.82;;;2.60;;
78622;SDS011;67943;54.412;9.502;2023-08-07T03:02:38;4.97;;;2.03;;
78622;SDS011;67943;54.412;9.502;2023-08-07T03:07:40;7.28;;;2.20;;
78622;SDS011;67943;54.412;9.502;2023-08-07T03:12:42;8.27;;;2.20;;
78622;SDS011;67943;54.412;9.502;2023-08-07T03:17:43;6.80;;;2.10;;
78622;SDS011;67943;54.412;9.502;2023-08-07T03:22:46;4.60;;;1.80;;
78622;SDS011;67943;54.412;9.502;2023-08-07T03:27:48;5.47;;;1.90;;
78622;SDS011;67943;54.412;9.502;2023-08-07T03:32:49;5.28;;;2.05;;
78622;SDS011;67943;54.412;9.502;2023-08-07T03:37:52;10.55;;;1.90;;
78622;SDS011;67943;54.412;9.502;2023-08-07T03:42:54;5.82;;;2.17;;
78622;SDS011;67943;54.412;9.502;2023-08-07T03:47:55;8.80;;;2.38;;
78622;SDS011;67943;54.412;9.502;2023-08-07T03:52:58;5.18;;;1.77;;
78622;SDS011;67943;54.412;9.502;2023-08-07T03:57:59;6.97;;;2.08;;
78622;SDS011;67943;54.412;9.502;2023-08-07T04:03:01;11.38;;;2.67;;
78622;SDS011;67943;54.412;9.502;2023-08-07T04:08:04;5.85;;;1.90;;
78622;SDS011;67943;54.412;9.502;2023-08-07T04:13:05;8.48;;;2.45;;
78622;SDS011;67943;54.412;9.502;2023-08-07T04:18:07;9.75;;;2.42;;
78622;SDS011;67943;54.412;9.502;2023-08-07T04:23:09;10.18;;;2.50;;
78622;SDS011;67943;54.412;9.502;2023-08-07T04:28:11;10.13;;;2.47;;
78622;SDS011;67943;54.412;9.502;2023-08-07T04:33:13;7.97;;;2.78;;
78622;SDS011;67943;54.412;9.502;2023-08-07T04:38:15;9.68;;;2.42;;
78622;SDS011;67943;54.412;9.502;2023-08-07T04:43:18;11.27;;;2.75;;
78622;SDS011;67943;54.412;9.502;2023-08-07T04:48:20;8.32;;;2.95;;
78622;SDS011;67943;54.412;9.502;2023-08-07T04:53:26;7.57;;;2.42;;
78622;SDS011;67943;54.412;9.502;2023-08-07T04:58:28;12.52;;;2.88;;
78622;SDS011;67943;54.412;9.502;2023-08-07T05:03:29;15.43;;;2.85;;
78622;SDS011;67943;54.412;9.502;2023-08-07T05:08:32;13.43;;;2.83;;
78622;SDS011;67943;54.412;9.502;2023-08-07T05:13:34;13.35;;;2.90;;
78622;SDS011;67943;54.412;9.502;2023-08-07T05:18:35;10.68;;;2.83;;
78622;SDS011;67943;54.412;9.502;2023-08-07T05:23:38;9.52;;;2.35;;
78622;SDS011;67943;54.412;9.502;2023-08-07T05:28:40;12.32;;;3.08;;
78622;SDS011;67943;54.412;9.502;2023-08-07T05:33:41;9.18;;;2.67;;
78622;SDS011;67943;54.412;9.502;2023-08-07T05:38:44;11.32;;;3.17;;
78622;SDS011;67943;54.412;9.502;2023-08-07T05:43:46;10.35;;;2.50;;
78622;SDS011;67943;54.412;9.502;2023-08-07T05:48:47;21.67;;;3.20;;
78622;SDS011;67943;54.412;9.502;2023-08-07T05:53:50;11.90;;;2.80;;
78622;SDS011;67943;54.412;9.502;2023-08-07T05:58:52;12.73;;;3.08;;
78622;SDS011;67943;54.412;9.502;2023-08-07T06:03:53;18.08;;;3.40;;
78622;SDS011;67943;54.412;9.502;2023-08-07T06:08:56;14.02;;;3.28;;
78622;SDS011;67943;54.412;9.502;2023-08-07T06:13:58;14.43;;;3.65;;
78622;SDS011;67943;54.412;9.502;2023-08-07T06:18:59;21.15;;;3.58;;
78622;SDS011;67943;54.412;9.502;2023-08-07T06:24:02;12.15;;;3.33;;
78622;SDS011;67943;54.412;9.502;2023-08-07T06:29:04;12.88;;;3.05;;
78622;SDS011;67943;54.412;9.502;2023-08-07T06:34:06;11.75;;;3.70;;
78622;SDS011;67943;54.412;9.502;2023-08-07T06:39:09;13.40;;;3.20;;
78622;SDS011;67943;54.412;9.502;2023-08-07T06:44:10;13.75;;;3.35;;
78622;SDS011;67943;54.412;9.502;2023-08-07T06:49:12;12.00;;;3.15;;
78622;SDS011;67943;54.412;9.502;2023-08-07T06:54:14;16.60;;;3.80;;
78622;SDS011;67943;54.412;9.502;2023-08-07T06:59:16;15.43;;;4.15;;
78622;SDS011;67943;54.412;9.502;2023-08-07T07:04:17;15.40;;;3.53;;
78622;SDS011;67943;54.412;9.502;2023-08-07T07:09:20;17.90;;;3.63;;
78622;SDS011;67943;54.412;9.502;2023-08-07T07:14:23;16.92;;;3.63;;
78622;SDS011;67943;54.412;9.502;2023-08-07T07:19:24;18.38;;;3.90;;
78622;SDS011;67943;54.412;9.502;2023-08-07T07:24:28;14.10;;;3.97;;
78622;SDS011;67943;54.412;9.502;2023-08-07T07:29:29;14.25;;;3.13;;
78622;SDS011;67943;54.412;9.502;2023-08-07T07:34:31;13.32;;;3.83;;
78622;SDS011;67943;54.412;9.502;2023-08-07T07:39:35;15.63;;;4.07;;
78622;SDS011;67943;54.412;9.502;2023-08-07T07:44:37;14.95;;;3.70;;
78622;SDS011;67943;54.412;9.502;2023-08-07T07:49:45;19.17;;;3.40;;
78622;SDS011;67943;54.412;9.502;2023-08-07T07:54:49;14.63;;;3.25;;
78622;SDS011;67943;54.412;9.502;2023-08-07T07:59:50;14.75;;;3.42;;
78622;SDS011;67943;54.412;9.502;2023-08-07T08:04:52;14.70;;;3.45;;
78622;SDS011;67943;54.412;9.502;2023-08-07T08:09:54;13.82;;;2.88;;
78622;SDS011;67943;54.412;9.502;2023-08-07T08:14:56;16.23;;;3.45;;
78622;SDS011;67943;54.412;9.502;2023-08-07T08:19:57;11.43;;;3.17;;
78622;SDS011;67943;54.412;9.502;2023-08-07T08:25:00;15.27;;;3.15;;
78622;SDS011;67943;54.412;9.502;2023-08-07T08:30:05;12.52;;;3.33;;
78622;SDS011;67943;54.412;9.502;2023-08-07T08:35:07;18.50;;;3.60;;
78622;SDS011;67943;54.412;9.502;2023-08-07T08:40:10;17.88;;;3.42;;
78622;SDS011;67943;54.412;9.502;2023-08-07T08:45:16;14.65;;;3.63;;
78622;SDS011;67943;54.412;9.502;2023-08-07T08:50:20;12.70;;;3.55;;
78622;SDS011;67943;54.412;9.502;2023-08-07T08:55:23;13.82;;;3.58;;
78622;SDS011;67943;54.412;9.502;2023-08-07T09:00:26;15.52;;;3.63;;
78622;SDS011;67943;54.412;9.502;2023-08-07T09:05:29;13.13;;;3.42;;
78622;SDS011;67943;54.412;9.502;2023-08-07T09:10:34;15.40;;;3.53;;
78622;SDS011;67943;54.412;9.502;2023-08-07T09:15:36;15.27;;;3.13;;
78622;SDS011;67943;54.412;9.502;2023-08-07T09:20:40;18.80;;;3.38;;
78622;SDS011;67943;54.412;9.502;2023-08-07T09:25:43;16.63;;;3.40;;
78622;SDS011;67943;54.412;9.502;2023-08-07T09:30:45;16.15;;;3.42;;
78622;SDS011;67943;54.412;9.502;2023-08-07T09:35:47;11.52;;;3.28;;
78622;SDS011;67943;54.412;9.502;2023-08-07T09:40:50;15.73;;;3.17;;
78622;SDS011;67943;54.412;9.502;2023-08-07T09:45:52;15.88;;;3.38;;
78622;SDS011;67943;54.412;9.502;2023-08-07T09:50:53;10.75;;;3.00;;
78622;SDS011;67943;54.412;9.502;2023-08-07T09:55:56;10.50;;;3.17;;
78622;SDS011;67943;54.412;9.502;2023-08-07T10:00:58;12.48;;;2.78;;
78622;SDS011;67943;54.412;9.502;2023-08-07T10:06:00;19.08;;;3.20;;
78622;SDS011;67943;54.412;9.502;2023-08-07T10:11:05;9.95;;;2.67;;
78622;SDS011;67943;54.412;9.502;2023-08-07T10:16:09;9.98;;;2.38;;
78622;SDS011;67943;54.412;9.502;2023-08-07T10:21:12;8.70;;;2.25;;
78622;SDS011;67943;54.412;9.502;2023-08-07T10:26:15;10.45;;;3.00;;
78622;SDS011;67943;54.412;9.502;2023-08-07T10:31:17;8.27;;;2.10;;
78622;SDS011;67943;54.412;9.502;2023-08-07T10:36:19;8.80;;;1.98;;
78622;SDS011;67943;54.412;9.502;2023-08-07T10:41:22;9.52;;;2.22;;
78622;SDS011;67943;54.412;9.502;2023-08-07T10:46:23;14.20;;;2.45;;
78622;SDS011;67943;54.412;9.502;2023-08-07T10:51:27;7.35;;;2.00;;
78622;SDS011;67943;54.412;9.502;2023-08-07T10:56:32;10.02;;;2.10;;
78622;SDS011;67943;54.412;9.502;2023-08-07T11:01:40;12.75;;;2.65;;
78622;SDS011;67943;54.412;9.502;2023-08-07T11:06:42;16.33;;;3.10;;
78622;SDS011;67943;54.412;9.502;2023-08-07T11:11:48;12.77;;;3.40;;
78622;SDS011;67943;54.412;9.502;2023-08-07T11:16:50;10.77;;;2.40;;
78622;SDS011;67943;54.412;9.502;2023-08-07T11:21:51;10.85;;;2.58;;
78622;SDS011;67943;54.412;9.502;2023-08-07T11:26:57;11.65;;;2.53;;
78622;SDS011;67943;54.412;9.502;2023-08-07T11:31:59;10.65;;;2.40;;
78622;SDS011;67943;54.412;9.502;2023-08-07T11:37:00;10.30;;;2.33;;
78622;SDS011;67943;54.412;9.502;2023-08-07T11:42:04;9.25;;;2.67;;
78622;SDS011;67943;54.412;9.502;2023-08-07T11:47:07;13.27;;;2.90;;
78622;SDS011;67943;54.412;9.502;2023-08-07T11:52:08;12.65;;;2.85;;
78622;SDS011;67943;54.412;9.502;2023-08-07T11:57:16;15.02;;;2.47;;
78622;SDS011;67943;54.412;9.502;2023-08-07T12:02:22;12.63;;;2.15;;
78622;SDS011;67943;54.412;9.502;2023-08-07T12:07:24;8.50;;;2.17;;
78622;SDS011;67943;54.412;9.502;2023-08-07T12:12:28;8.43;;;2.20;;
78622;SDS011;67943;54.412;9.502;2023-08-07T12:17:34;11.98;;;2.72;;
78622;SDS011;67943;54.412;9.502;2023-08-07T12:22:36;12.13;;;2.45;;
78622;SDS011;67943;54.412;9.502;2023-08-07T12:27:39;12.32;;;2.92;;
78622;SDS011;67943;54.412;9.502;2023-08-07T12:32:41;11.75;;;3.20;;
78622;SDS011;67943;54.412;9.502;2023-08-07T12:37:42;11.73;;;2.85;;
78622;SDS011;67943;54.412;9.502;2023-08-07T12:42:45;14.25;;;3.00;;
78622;SDS011;67943;54.412;9.502;2023-08-07T12:47:46;12.07;;;2.88;;
78622;SDS011;67943;54.412;9.502;2023-08-07T12:52:48;10.15;;;2.92;;
78622;SDS011;67943;54.412;9.502;2023-08-07T12:57:51;10.45;;;3.15;;
78622;SDS011;67943;54.412;9.502;2023-08-07T13:02:53;17.35;;;3.63;;
78622;SDS011;67943;54.412;9.502;2023-08-07T13:07:56;18.23;;;3.80;;
78622;SDS011;67943;54.412;9.502;2023-08-07T13:12:59;14.57;;;2.92;;
78622;SDS011;67943;54.412;9.502;2023-08-07T13:18:01;15.73;;;3.40;;
78622;SDS011;67943;54.412;9.502;2023-08-07T13:23:03;13.40;;;3.10;;
78622;SDS011;67943;54.412;9.502;2023-08-07T13:28:07;15.90;;;3.50;;
78622;SDS011;67943;54.412;9.502;2023-08-07T13:33:09;15.68;;;3.08;;
78622;SDS011;67943;54.412;9.502;2023-08-07T13:38:10;10.45;;;2.95;;
78622;SDS011;67943;54.412;9.502;2023-08-07T13:43:16;12.30;;;2.75;;
78622;SDS011;67943;54.412;9.502;2023-08-07T13:48:17;16.92;;;2.65;;
78622;SDS011;67943;54.412;9.502;2023-08-07T13:53:19;9.93;;;2.35;;
78622;SDS011;67943;54.412;9.502;2023-08-07T13:58:22;16.33;;;3.28;;
78622;SDS011;67943;54.412;9.502;2023-08-07T14:03:23;16.85;;;4.05;;
78622;SDS011;67943;54.412;9.502;2023-08-07T14:08:25;12.38;;;2.60;;
78622;SDS011;67943;54.412;9.502;2023-08-07T14:13:28;12.30;;;2.60;;
78622;SDS011;67943;54.412;9.502;2023-08-07T14:18:29;11.73;;;2.78;;
78622;SDS011;67943;54.412;9.502;2023-08-07T14:23:31;8.18;;;2.60;;
78622;SDS011;67943;54.412;9.502;2023-08-07T14:28:33;12.98;;;2.72;;
78622;SDS011;67943;54.412;9.502;2023-08-07T14:33:37;16.13;;;2.80;;
78622;SDS011;67943;54.412;9.502;2023-08-07T14:38:39;13.40;;;2.72;;
78622;SDS011;67943;54.412;9.502;2023-08-07T14:43:41;11.18;;;2.67;;
78622;SDS011;67943;54.412;9.502;2023-08-07T14:48:43;12.00;;;2.70;;
78622;SDS011;67943;54.412;9.502;2023-08-07T14:53:44;15.02;;;2.70;;
78622;SDS011;67943;54.412;9.502;2023-08-07T14:58:47;12.10;;;2.65;;
78622;SDS011;67943;54.412;9.502;2023-08-07T15:03:49;12.35;;;2.33;;
78622;SDS011;67943;54.412;9.502;2023-08-07T15:08:51;13.30;;;2.45;;
78622;SDS011;67943;54.412;9.502;2023-08-07T15:13:53;12.20;;;2.70;;
78622;SDS011;67943;54.412;9.502;2023-08-07T15:18:55;15.00;;;3.10;;
78622;SDS011;67943;54.412;9.502;2023-08-07T15:23:57;11.48;;;2.25;;
78622;SDS011;67943;54.412;9.502;2023-08-07T15:29:00;14.57;;;3.15;;
78622;SDS011;67943;54.412;9.502;2023-08-07T15:34:01;21.90;;;3.95;;
78622;SDS011;67943;54.412;9.502;2023-08-07T15:39:03;20.35;;;3.90;;
78622;SDS011;67943;54.412;9.502;2023-08-07T15:44:06;16.27;;;3.45;;
78622;SDS011;67943;54.412;9.502;2023-08-07T15:49:08;16.70;;;3.25;;
78622;SDS011;67943;54.412;9.502;2023-08-07T15:54:10;14.75;;;3.40;;
78622;SDS011;67943;54.412;9.502;2023-08-07T15:59:13;16.23;;;3.60;;
78622;SDS011;67943;54.412;9.502;2023-08-07T16:04:14;16.30;;;3.33;;
78622;SDS011;67943;54.412;9.502;2023-08-07T16:09:16;14.82;;;3.33;;
78622;SDS011;67943;54.412;9.502;2023-08-07T16:14:18;16.25;;;3.50;;
78622;SDS011;67943;54.412;9.502;2023-08-07T16:19:22;25.08;;;3.33;;
78622;SDS011;67943;54.412;9.502;2023-08-07T16:24:23;18.83;;;3.28;;
78622;SDS011;67943;54.412;9.502;2023-08-07T16:29:26;20.48;;;3.75;;
78622;SDS011;67943;54.412;9.502;2023-08-07T16:34:28;15.15;;;2.80;;
78622;SDS011;67943;54.412;9.502;2023-08-07T16:39:29;14.15;;;3.28;;
78622;SDS011;67943;54.412;9.502;2023-08-07T16:44:32;13.18;;;3.10;;
78622;SDS011;67943;54.412;9.502;2023-08-07T16:49:34;11.45;;;2.35;;
78622;SDS011;67943;54.412;9.502;2023-08-07T16:54:36;11.35;;;2.65;;
78622;SDS011;67943;54.412;9.502;2023-08-07T16:59:39;11.32;;;2.40;;
78622;SDS011;67943;54.412;9.502;2023-08-07T17:04:40;14.07;;;3.08;;
78622;SDS011;67943;54.412;9.502;2023-08-07T17:09:42;11.25;;;2.70;;
78622;SDS011;67943;54.412;9.502;2023-08-07T17:14:45;14.30;;;2.35;;
78622;SDS011;67943;54.412;9.502;2023-08-07T17:19:47;9.88;;;2.58;;
78622;SDS011;67943;54.412;9.502;2023-08-07T17:24:48;9.38;;;2.55;;
78622;SDS011;67943;54.412;9.502;2023-08-07T17:29:51;17.45;;;3.60;;
78622;SDS011;67943;54.412;9.502;2023-08-07T17:34:54;19.13;;;3.80;;
78622;SDS011;67943;54.412;9.502;2023-08-07T17:39:57;15.68;;;3.10;;
78622;SDS011;67943;54.412;9.502;2023-08-07T17:45:00;14.13;;;4.00;;
78622;SDS011;67943;54.412;9.502;2023-08-07T17:50:02;17.45;;;2.95;;
78622;SDS011;67943;54.412;9.502;2023-08-07T17:55:05;15.63;;;3.70;;
78622;SDS011;67943;54.412;9.502;2023-08-07T18:00:09;15.88;;;3.50;;
78622;SDS011;67943;54.412;9.502;2023-08-07T18:05:13;16.00;;;4.00;;
78622;SDS011;67943;54.412;9.502;2023-08-07T18:10:15;20.02;;;3.65;;
78622;SDS011;67943;54.412;9.502;2023-08-07T18:15:17;16.90;;;4.05;;
78622;SDS011;67943;54.412;9.502;2023-08-07T18:20:19;20.40;;;3.40;;
78622;SDS011;67943;54.412;9.502;2023-08-07T18:25:21;18.60;;;3.85;;
78622;SDS011;67943;54.412;9.502;2023-08-07T18:30:24;12.98;;;3.60;;
78622;SDS011;67943;54.412;9.502;2023-08-07T18:35:25;15.93;;;3.70;;
78622;SDS011;67943;54.412;9.502;2023-08-07T18:40:27;14.65;;;3.95;;
78622;SDS011;67943;54.412;9.502;2023-08-07T18:45:30;15.48;;;3.60;;
78622;SDS011;67943;54.412;9.502;2023-08-07T18:50:31;19.15;;;3.90;;
78622;SDS011;67943;54.412;9.502;2023-08-07T18:55:33;15.38;;;3.50;;
78622;SDS011;67943;54.412;9.502;2023-08-07T19:00:35;14.18;;;3.35;;
78622;SDS011;67943;54.412;9.502;2023-08-07T19:05:37;14.27;;;3.45;;
78622;SDS011;67943;54.412;9.502;2023-08-07T19:10:38;13.65;;;3.40;;
78622;SDS011;67943;54.412;9.502;2023-08-07T19:15:41;14.90;;;3.78;;
78622;SDS011;67943;54.412;9.502;2023-08-07T19:20:45;18.55;;;3.92;;
78622;SDS011;67943;54.412;9.502;2023-08-07T19:25:46;17.60;;;3.42;;
78622;SDS011;67943;54.412;9.502;2023-08-07T19:30:49;16.13;;;3.80;;
78622;SDS011;67943;54.412;9.502;2023-08-07T19:35:51;19.75;;;3.55;;
78622;SDS011;67943;54.412;9.502;2023-08-07T19:40:52;13.68;;;3.45;;
78622;SDS011;67943;54.412;9.502;2023-08-07T19:45:55;24.30;;;4.50;;
78622;SDS011;67943;54.412;9.502;2023-08-07T19:50:57;17.85;;;3.75;;
78622;SDS011;67943;54.412;9.502;2023-08-07T19:55:59;14.57;;;3.40;;
78622;SDS011;67943;54.412;9.502;2023-08-07T20:01:02;16.83;;;3.70;;
78622;SDS011;67943;54.412;9.502;2023-08-07T20:06:03;11.82;;;3.42;;
78622;SDS011;67943;54.412;9.502;2023-08-07T20:11:05;16.40;;;3.47;;
78622;SDS011;67943;54.412;9.502;2023-08-07T20:16:08;14.60;;;3.90;;
78622;SDS011;67943;54.412;9.502;2023-08-07T20:21:09;22.70;;;5.00;;
78622;SDS011;67943;54.412;9.502;2023-08-07T20:26:12;14.38;;;3.47;;
78622;SDS011;67943;54.412;9.502;2023-08-07T20:31:15;16.30;;;3.95;;
78622;SDS011;67943;54.412;9.502;2023-08-07T20:36:17;11.48;;;3.20;;
78622;SDS011;67943;54.412;9.502;2023-08-07T20:41:18;10.38;;;2.95;;
78622;SDS011;67943;54.412;9.502;2023-08-07T20:46:22;9.98;;;3.10;;
78622;SDS011;67943;54.412;9.502;2023-08-07T20:51:24;11.52;;;2.90;;
78622;SDS011;67943;54.412;9.502;2023-08-07T20:56:25;15.75;;;3.70;;
78622;SDS011;67943;54.412;9.502;2023-08-07T21:01:28;14.55;;;3.10;;
78622;SDS011;67943;54.412;9.502;2023-08-07T21:06:30;13.30;;;3.13;;
78622;SDS011;67943;54.412;9.502;2023-08-07T21:11:32;16.65;;;3.55;;
78622;SDS011;67943;54.412;9.502;2023-08-07T21:16:35;12.45;;;3.47;;
78622;SDS011;67943;54.412;9.502;2023-08-07T21:21:36;15.15;;;3.15;;
78622;SDS011;67943;54.412;9.502;2023-08-07T21:26:38;20.27;;;3.78;;
78622;SDS011;67943;54.412;9.502;2023-08-07T21:31:41;12.55;;;3.40;;
78622;SDS011;67943;54.412;9.502;2023-08-07T21:36:42;10.15;;;2.58;;
78622;SDS011;67943;54.412;9.502;2023-08-07T21:41:45;17.42;;;3.03;;
78622;SDS011;67943;54.412;9.502;2023-08-07T21:46:48;21.15;;;3.30;;
78622;SDS011;67943;54.412;9.502;2023-08-07T21:51:49;15.95;;;3.42;;
78622;SDS011;67943;54.412;9.502;2023-08-07T21:56:50;16.45;;;3.22;;
78622;SDS011;67943;54.412;9.502;2023-08-07T22:01:53;13.57;;;2.92;;
78622;SDS011;67943;54.412;9.502;2023-08-07T22:06:55;11.90;;;2.97;;
78622;SDS011;67943;54.412;9.502;2023-08-07T22:11:56;17.75;;;3.00;;
78622;SDS011;67943;54.412;9.502;2023-08-07T22:16:59;11.30;;;2.83;;
78622;SDS011;67943;54.412;9.502;2023-08-07T22:22:01;13.43;;;3.08;;
78622;SDS011;67943;54.412;9.502;2023-08-07T22:27:03;16.02;;;3.20;;
78622;SDS011;67943;54.412;9.502;2023-08-07T22:32:06;10.88;;;2.88;;
78622;SDS011;67943;54.412;9.502;2023-08-07T22:37:07;17.42;;;3.70;;
78622;SDS011;67943;54.412;9.502;2023-08-07T22:42:09;18.85;;;3.90;;
78622;SDS011;67943;54.412;9.502;2023-08-07T22:47:12;12.73;;;3.05;;
78622;SDS011;67943;54.412;9.502;2023-08-07T22:52:13;16.20;;;3.65;;
78622;SDS011;67943;54.412;9.502;2023-08-07T22:57:15;11.70;;;3.10;;
78622;SDS011;67943;54.412;9.502;2023-08-07T23:02:17;15.18;;;3.65;;
78622;SDS011;67943;54.412;9.502;2023-08-07T23:07:19;16.48;;;3.42;;
78622;SDS011;67943;54.412;9.502;2023-08-07T23:12:20;12.25;;;3.20;;
78622;SDS011;67943;54.412;9.502;2023-08-07T23:17:23;15.85;;;3.72;;
78622;SDS011;67943;54.412;9.502;2023-08-07T23:22:25;13.88;;;3.33;;
78622;SDS011;67943;54.412;9.502;2023-08-07T23:27:26;12.73;;;3.35;;
78622;SDS011;67943;54.412;9.502;2023-08-07T23:32:29;16.15;;;3.70;;
78622;SDS011;67943;54.412;9.502;2023-08-07T23:37:30;12.68;;;3.10;;
78622;SDS011;67943;54.412;9.502;2023-08-07T23:42:32;14.05;;;3.13;;
78622;SDS011;67943;54.412;9.502;2023-08-07T23:47:35;14.15;;;3.25;;
78622;SDS011;67943;54.412;9.502;2023-08-07T23:52:36;12.07;;;2.80;;
78622;SDS011;67943;54.412;9.502;2023-08-07T23:57:38;17.92;;;3.45;;
